Flight Track Log - Related Links

Times and Time Zones

All times are in EDT time to prevent confusion due to time zone crossing. See the NSH577 flight status page for this flight to view local times or setup timezone preferences in your user account.

Time Position Orientation Groundspeed Altitude Reporting Facility
EDT Latitude Longitude Course Direction KTS MPH feet Rate Location/Type
Sun 02:23:17 PM 33.6167 -111.9167 284° West 168 193 2,500  Level Phoenix TRACON
Sun 02:24:30 PM 33.6333 -112.0000 284° West 244 281 5,400 2,300 Climbing Phoenix TRACON
Sun 02:25:17 PM 33.6583 -112.0533 299° West 264 304 7,100 2,477 Climbing Albuquerque Center
Sun 02:26:19 PM 33.7061 -112.1303 307° West 290 334 9,900 2,419 Climbing Albuquerque Center
Sun 02:27:21 PM 33.7517 -112.2228 301° West 321 369 12,100 2,274 Climbing Albuquerque Center
Sun 02:28:23 PM 33.7842 -112.3606 286° West 358 412 14,600 2,177 Climbing Albuquerque Center
Sun 02:29:25 PM 33.8183 -112.4803 289° West 375 432 16,600 1,790 Climbing Albuquerque Center
Sun 02:30:27 PM 33.8508 -112.6078 287° West 396 456 18,300 1,839 Climbing Albuquerque Center
Sun 02:31:29 PM 33.8844 -112.7378 287° West 404 465 20,400 2,032 Climbing Albuquerque Center
Sun 02:32:31 PM 33.9197 -112.8694 288° West 411 473 22,500 1,887 Climbing Albuquerque Center
Sun 02:33:33 PM 33.9564 -113.0069 288° West 425 489 24,300 1,935 Climbing Albuquerque Center
Sun 02:34:35 PM 33.9997 -113.1794 287° West 443 510 26,500 1,935 Climbing Albuquerque Center
Sun 02:35:37 PM 34.0367 -113.3281 287° West 453 521 28,300 1,355 Climbing Albuquerque Center
Sun 02:36:39 PM 34.0750 -113.4839 287° West 470 541 29,300 823 Climbing Albuquerque Center
Sun 02:37:41 PM 34.1164 -113.6478 287° West 492 566 30,000 339 Climbing Albuquerque Center
Sun 02:38:43 PM 34.1617 -113.8192 288° West 510 587 30,000  Level Albuquerque Center
Sun 02:39:45 PM 34.2039 -113.9833 287° West 513 590 30,000  Level Albuquerque Center
Sun 02:40:47 PM 34.2456 -114.1481 287° West 513 590 30,000  Level Albuquerque Center
Sun 02:41:49 PM 34.2942 -114.3472 287° West 515 593 30,000  Level Albuquerque Center
Sun 02:42:51 PM 34.3336 -114.5150 286° West 517 595 30,000  Level Albuquerque Center
Sun 02:43:47 PM 34.3767 -114.6722 288° West 511 588 30,000  Level Los Angeles Center
Sun 02:44:49 PM 34.4161 -114.8367 286° West 511 588 30,000  Level Los Angeles Center
Sun 02:45:51 PM 34.4553 -114.9997 286° West 508 585 30,000  Level Los Angeles Center
Sun 02:46:53 PM 34.4947 -115.1633 286° West 507 583 30,000  Level Los Angeles Center
Sun 02:47:56 PM 34.5353 -115.3331 286° West 521 600 30,000 -48 Level Los Angeles Center
Sun 02:48:58 PM 34.5756 -115.5033 286° West 526 605 29,900 -677 Descending Los Angeles Center
Sun 02:50:00 PM 34.6383 -115.6744 294° West 508 585 28,600 -1,306 Descending Los Angeles Center
Sun 02:51:02 PM 34.6933 -115.8272 294° West 498 573 27,200 -1,258 Descending Los Angeles Center
Sun 02:52:04 PM 34.7489 -115.9742 295° West 486 559 26,000 -1,065 Descending Los Angeles Center
Sun 02:53:06 PM 34.7936 -116.1550 287° West 472 543 25,000 -1,161 Descending Los Angeles Center
Sun 02:54:08 PM 34.7969 -116.3156 271° West 478 550 23,600 -1,306 Descending Los Angeles Center
Sun 02:55:10 PM 34.7958 -116.4753 270° West 474 545 22,300 -1,152 Descending Los Angeles Center
Sun 02:56:13 PM 34.7808 -116.6267 263° West 456 525 21,200 -968 Descending Los Angeles Center
Sun 02:57:14 PM 34.7667 -116.7739 263° West 441 507 20,300 -581 Descending Los Angeles Center
Sun 02:58:17 PM 34.7517 -116.9217 263° West 440 506 20,000 -384 Descending Los Angeles Center
Sun 02:59:19 PM 34.7339 -117.1008 263° West 445 512 19,500 -1,113 Descending Los Angeles Center
Sun 03:00:21 PM 34.7178 -117.2486 262° West 441 507 17,700 -1,548 Descending Los Angeles Center
Sun 03:01:23 PM 34.7019 -117.3947 263° West 437 503 16,300 -1,065 Descending Los Angeles Center
Sun 03:02:25 PM 34.6869 -117.5353 263° West 425 489 15,500 -581 Descending Los Angeles Center
Sun 03:03:27 PM 34.6761 -117.6494 263° West 358 412 15,100 -242 Descending Los Angeles Center
Sun 03:04:29 PM 34.6644 -117.7569 263° West 325 374 15,000 -484 Descending Los Angeles Center
Sun 03:05:31 PM 34.6492 -117.8661 260° West 329 379 14,100 -1,452 Descending Los Angeles Center
Sun 03:06:33 PM 34.6067 -117.9842 246° West 318 366 12,000 -1,645 Descending Los Angeles Center
Sun 03:07:35 PM 34.5744 -118.0789 248° West 305 351 10,700 -1,440 Descending Los Angeles Center
Sun 03:08:38 PM 34.5439 -118.1650 247° West 291 335 9,000 -1,296 Descending Los Angeles Center
Sun 03:09:40 PM 34.5125 -118.2542 247° West 286 329 8,000 -435 Descending Los Angeles Center
Sun 03:10:42 PM 34.4497 -118.3403 229° Southwest 291 335 8,100 -145 Climbing Los Angeles Center
Sun 03:11:44 PM 34.3722 -118.3603 192° South 280 322 7,700 -726 Descending Los Angeles Center
Sun 03:12:46 PM 34.2981 -118.3644 183° South 272 313 6,600 -823 Descending Los Angeles Center
Sun 03:13:48 PM 34.2350 -118.3256 153° Southeast 259 298 6,000 -532 Descending Los Angeles Center
Sun 03:14:50 PM 34.1778 -118.2889 152° Southeast 242 278 5,500 -1,065 Descending Los Angeles Center
Sun 03:15:52 PM 34.1244 -118.3122 200° South 209 241 3,800 -1,392 Descending Los Angeles Center
Sun 03:16:55 PM 34.0839 -118.3611 225° Southwest 180 207 2,600 -1,113 Descending Los Angeles Center
Sun 03:17:56 PM 34.0556 -118.4006 229° Southwest 167 192 1,500 -823 Descending Los Angeles Center
Sun 03:18:59 PM 34.0325 -118.4331 229° Southwest 148 170 900 -528 Descending Los Angeles Center
Sun 03:20:01 PM 34.0111 -118.4600 226° Southwest 140 161 400 -484 Descending Los Angeles Center
Sun 03:22:00 PM 34.0000 -118.4500 244° Southwest  Level FlightAware Approximate

Login

Don't have an account? Register now (free) for customized features, flight alerts, and more!